sensor_id;sensor_type;location;lat;lon;timestamp;P1;durP1;ratioP1;P2;durP2;ratioP2
20245;SDS011;10281;54.406;18.556;2024-01-30T00:02:23;29.87;;;17.97;;
20245;SDS011;10281;54.406;18.556;2024-01-30T00:04:50;28.33;;;17.57;;
20245;SDS011;10281;54.406;18.556;2024-01-30T00:07:16;28.07;;;17.47;;
20245;SDS011;10281;54.406;18.556;2024-01-30T00:09:46;29.07;;;17.37;;
20245;SDS011;10281;54.406;18.556;2024-01-30T00:12:13;28.57;;;17.20;;
20245;SDS011;10281;54.406;18.556;2024-01-30T00:14:41;31.57;;;17.07;;
20245;SDS011;10281;54.406;18.556;2024-01-30T00:17:09;28.97;;;17.37;;
20245;SDS011;10281;54.406;18.556;2024-01-30T00:19:36;30.03;;;18.30;;
20245;SDS011;10281;54.406;18.556;2024-01-30T00:22:02;27.77;;;16.97;;
20245;SDS011;10281;54.406;18.556;2024-01-30T00:24:30;30.80;;;18.30;;
20245;SDS011;10281;54.406;18.556;2024-01-30T00:26:56;32.27;;;17.73;;
20245;SDS011;10281;54.406;18.556;2024-01-30T00:29:23;25.10;;;16.27;;
20245;SDS011;10281;54.406;18.556;2024-01-30T00:31:51;29.23;;;18.10;;
20245;SDS011;10281;54.406;18.556;2024-01-30T00:34:18;30.43;;;17.90;;
20245;SDS011;10281;54.406;18.556;2024-01-30T00:36:44;27.40;;;17.70;;
20245;SDS011;10281;54.406;18.556;2024-01-30T00:39:11;30.80;;;18.10;;
20245;SDS011;10281;54.406;18.556;2024-01-30T00:41:38;31.07;;;18.13;;
20245;SDS011;10281;54.406;18.556;2024-01-30T00:44:04;29.87;;;17.13;;
20245;SDS011;10281;54.406;18.556;2024-01-30T00:46:31;29.33;;;17.53;;
20245;SDS011;10281;54.406;18.556;2024-01-30T00:48:57;29.53;;;18.10;;
20245;SDS011;10281;54.406;18.556;2024-01-30T00:51:24;31.97;;;17.90;;
20245;SDS011;10281;54.406;18.556;2024-01-30T00:53:51;29.53;;;16.93;;
20245;SDS011;10281;54.406;18.556;2024-01-30T00:56:18;29.53;;;17.10;;
20245;SDS011;10281;54.406;18.556;2024-01-30T00:58:45;30.57;;;17.37;;
20245;SDS011;10281;54.406;18.556;2024-01-30T01:01:12;27.47;;;17.50;;
20245;SDS011;10281;54.406;18.556;2024-01-30T01:03:38;30.87;;;18.07;;
20245;SDS011;10281;54.406;18.556;2024-01-30T01:06:06;28.73;;;17.80;;
20245;SDS011;10281;54.406;18.556;2024-01-30T01:08:33;30.37;;;18.57;;
20245;SDS011;10281;54.406;18.556;2024-01-30T01:10:59;31.90;;;18.37;;
20245;SDS011;10281;54.406;18.556;2024-01-30T01:13:26;30.90;;;19.07;;
20245;SDS011;10281;54.406;18.556;2024-01-30T01:15:52;36.53;;;21.60;;
20245;SDS011;10281;54.406;18.556;2024-01-30T01:18:19;38.97;;;23.47;;
20245;SDS011;10281;54.406;18.556;2024-01-30T01:20:46;41.30;;;23.23;;
20245;SDS011;10281;54.406;18.556;2024-01-30T01:23:12;39.70;;;24.30;;
20245;SDS011;10281;54.406;18.556;2024-01-30T01:25:40;44.23;;;24.43;;
20245;SDS011;10281;54.406;18.556;2024-01-30T01:28:06;42.17;;;24.50;;
20245;SDS011;10281;54.406;18.556;2024-01-30T01:30:33;42.97;;;25.53;;
20245;SDS011;10281;54.406;18.556;2024-01-30T01:32:59;41.63;;;24.73;;
20245;SDS011;10281;54.406;18.556;2024-01-30T01:35:27;43.50;;;24.90;;
20245;SDS011;10281;54.406;18.556;2024-01-30T01:37:54;43.80;;;24.37;;
20245;SDS011;10281;54.406;18.556;2024-01-30T01:40:22;41.67;;;24.23;;
20245;SDS011;10281;54.406;18.556;2024-01-30T01:42:50;37.43;;;24.13;;
20245;SDS011;10281;54.406;18.556;2024-01-30T01:45:18;40.13;;;23.57;;
20245;SDS011;10281;54.406;18.556;2024-01-30T01:47:47;40.53;;;24.20;;
20245;SDS011;10281;54.406;18.556;2024-01-30T01:50:16;40.67;;;23.80;;
20245;SDS011;10281;54.406;18.556;2024-01-30T01:52:44;36.23;;;22.27;;
20245;SDS011;10281;54.406;18.556;2024-01-30T01:55:13;34.47;;;21.43;;
20245;SDS011;10281;54.406;18.556;2024-01-30T01:57:41;35.77;;;21.03;;
20245;SDS011;10281;54.406;18.556;2024-01-30T02:00:08;40.13;;;22.10;;
20245;SDS011;10281;54.406;18.556;2024-01-30T02:02:36;32.53;;;20.00;;
20245;SDS011;10281;54.406;18.556;2024-01-30T02:05:03;35.20;;;20.67;;
20245;SDS011;10281;54.406;18.556;2024-01-30T02:07:30;33.27;;;19.93;;
20245;SDS011;10281;54.406;18.556;2024-01-30T02:09:57;37.13;;;21.47;;
20245;SDS011;10281;54.406;18.556;2024-01-30T02:12:24;37.90;;;21.33;;
20245;SDS011;10281;54.406;18.556;2024-01-30T02:14:50;34.60;;;20.70;;
20245;SDS011;10281;54.406;18.556;2024-01-30T02:17:17;33.30;;;19.53;;
20245;SDS011;10281;54.406;18.556;2024-01-30T02:19:44;33.97;;;19.90;;
20245;SDS011;10281;54.406;18.556;2024-01-30T02:22:10;33.83;;;19.93;;
20245;SDS011;10281;54.406;18.556;2024-01-30T02:24:37;31.67;;;19.10;;
20245;SDS011;10281;54.406;18.556;2024-01-30T02:27:04;28.23;;;17.60;;
20245;SDS011;10281;54.406;18.556;2024-01-30T02:29:31;28.83;;;18.27;;
20245;SDS011;10281;54.406;18.556;2024-01-30T02:31:57;32.93;;;17.97;;
20245;SDS011;10281;54.406;18.556;2024-01-30T02:34:24;32.70;;;19.10;;
20245;SDS011;10281;54.406;18.556;2024-01-30T02:36:50;27.87;;;18.57;;
20245;SDS011;10281;54.406;18.556;2024-01-30T02:39:17;29.27;;;17.50;;
20245;SDS011;10281;54.406;18.556;2024-01-30T02:41:44;27.03;;;16.60;;
20245;SDS011;10281;54.406;18.556;2024-01-30T02:44:10;24.47;;;16.10;;
20245;SDS011;10281;54.406;18.556;2024-01-30T02:46:37;29.27;;;17.03;;
20245;SDS011;10281;54.406;18.556;2024-01-30T02:49:03;25.17;;;15.60;;
20245;SDS011;10281;54.406;18.556;2024-01-30T02:51:30;31.20;;;16.77;;
20245;SDS011;10281;54.406;18.556;2024-01-30T02:53:57;23.93;;;15.57;;
20245;SDS011;10281;54.406;18.556;2024-01-30T02:56:23;25.77;;;15.60;;
20245;SDS011;10281;54.406;18.556;2024-01-30T02:58:50;23.33;;;15.50;;
20245;SDS011;10281;54.406;18.556;2024-01-30T03:01:17;28.37;;;16.30;;
20245;SDS011;10281;54.406;18.556;2024-01-30T03:03:43;25.73;;;15.60;;
20245;SDS011;10281;54.406;18.556;2024-01-30T03:06:10;28.40;;;16.83;;
20245;SDS011;10281;54.406;18.556;2024-01-30T03:08:36;28.70;;;17.30;;
20245;SDS011;10281;54.406;18.556;2024-01-30T03:11:03;23.40;;;16.50;;
20245;SDS011;10281;54.406;18.556;2024-01-30T03:13:30;30.67;;;16.27;;
20245;SDS011;10281;54.406;18.556;2024-01-30T03:15:56;27.43;;;17.10;;
20245;SDS011;10281;54.406;18.556;2024-01-30T03:18:23;28.00;;;16.47;;
20245;SDS011;10281;54.406;18.556;2024-01-30T03:20:49;28.57;;;17.00;;
20245;SDS011;10281;54.406;18.556;2024-01-30T03:23:16;25.50;;;15.23;;
20245;SDS011;10281;54.406;18.556;2024-01-30T03:25:42;27.50;;;16.17;;
20245;SDS011;10281;54.406;18.556;2024-01-30T03:28:09;27.63;;;15.67;;
20245;SDS011;10281;54.406;18.556;2024-01-30T03:30:36;23.43;;;15.37;;
20245;SDS011;10281;54.406;18.556;2024-01-30T03:33:02;25.10;;;16.03;;
20245;SDS011;10281;54.406;18.556;2024-01-30T03:35:29;25.23;;;14.97;;
20245;SDS011;10281;54.406;18.556;2024-01-30T03:37:56;30.10;;;16.70;;
20245;SDS011;10281;54.406;18.556;2024-01-30T03:40:22;28.73;;;16.73;;
20245;SDS011;10281;54.406;18.556;2024-01-30T03:42:49;26.40;;;15.77;;
20245;SDS011;10281;54.406;18.556;2024-01-30T03:45:15;25.97;;;15.10;;
20245;SDS011;10281;54.406;18.556;2024-01-30T03:47:44;30.90;;;17.03;;
20245;SDS011;10281;54.406;18.556;2024-01-30T03:50:11;31.23;;;16.83;;
20245;SDS011;10281;54.406;18.556;2024-01-30T03:52:37;29.00;;;17.17;;
20245;SDS011;10281;54.406;18.556;2024-01-30T03:55:05;33.27;;;18.03;;
20245;SDS011;10281;54.406;18.556;2024-01-30T03:57:31;30.00;;;17.30;;
20245;SDS011;10281;54.406;18.556;2024-01-30T03:59:58;28.43;;;17.03;;
20245;SDS011;10281;54.406;18.556;2024-01-30T04:02:25;28.23;;;18.27;;
20245;SDS011;10281;54.406;18.556;2024-01-30T04:04:51;28.17;;;16.77;;
20245;SDS011;10281;54.406;18.556;2024-01-30T04:07:18;27.83;;;17.37;;
20245;SDS011;10281;54.406;18.556;2024-01-30T04:09:44;26.20;;;16.97;;
20245;SDS011;10281;54.406;18.556;2024-01-30T04:12:11;21.87;;;14.83;;
20245;SDS011;10281;54.406;18.556;2024-01-30T04:14:38;26.13;;;15.67;;
20245;SDS011;10281;54.406;18.556;2024-01-30T04:17:05;28.07;;;15.67;;
20245;SDS011;10281;54.406;18.556;2024-01-30T04:19:32;26.10;;;16.80;;
20245;SDS011;10281;54.406;18.556;2024-01-30T04:21:58;30.83;;;17.03;;
20245;SDS011;10281;54.406;18.556;2024-01-30T04:24:25;27.17;;;16.70;;
20245;SDS011;10281;54.406;18.556;2024-01-30T04:26:51;27.50;;;16.37;;
20245;SDS011;10281;54.406;18.556;2024-01-30T04:29:18;26.43;;;15.90;;
20245;SDS011;10281;54.406;18.556;2024-01-30T04:31:45;25.27;;;16.20;;
20245;SDS011;10281;54.406;18.556;2024-01-30T04:34:12;29.73;;;17.20;;
20245;SDS011;10281;54.406;18.556;2024-01-30T04:36:38;27.93;;;17.27;;
20245;SDS011;10281;54.406;18.556;2024-01-30T04:39:05;28.70;;;16.43;;
20245;SDS011;10281;54.406;18.556;2024-01-30T04:41:32;28.43;;;17.03;;
20245;SDS011;10281;54.406;18.556;2024-01-30T04:43:59;29.87;;;17.53;;
20245;SDS011;10281;54.406;18.556;2024-01-30T04:46:26;31.03;;;17.03;;
20245;SDS011;10281;54.406;18.556;2024-01-30T04:48:53;29.70;;;16.53;;
20245;SDS011;10281;54.406;18.556;2024-01-30T04:51:20;27.93;;;16.30;;
20245;SDS011;10281;54.406;18.556;2024-01-30T04:53:47;30.53;;;16.97;;
20245;SDS011;10281;54.406;18.556;2024-01-30T04:56:13;27.43;;;16.40;;
20245;SDS011;10281;54.406;18.556;2024-01-30T04:58:40;27.57;;;16.70;;
20245;SDS011;10281;54.406;18.556;2024-01-30T05:01:06;27.37;;;16.00;;
20245;SDS011;10281;54.406;18.556;2024-01-30T05:03:34;28.57;;;17.50;;
20245;SDS011;10281;54.406;18.556;2024-01-30T05:06:01;29.33;;;17.03;;
20245;SDS011;10281;54.406;18.556;2024-01-30T05:08:28;31.03;;;17.77;;
20245;SDS011;10281;54.406;18.556;2024-01-30T05:10:55;29.30;;;17.80;;
20245;SDS011;10281;54.406;18.556;2024-01-30T05:13:21;32.23;;;18.40;;
20245;SDS011;10281;54.406;18.556;2024-01-30T05:15:48;33.80;;;17.33;;
20245;SDS011;10281;54.406;18.556;2024-01-30T05:18:15;30.87;;;18.53;;
20245;SDS011;10281;54.406;18.556;2024-01-30T05:20:41;28.17;;;17.57;;
20245;SDS011;10281;54.406;18.556;2024-01-30T05:23:08;33.27;;;19.27;;
20245;SDS011;10281;54.406;18.556;2024-01-30T05:25:35;28.67;;;17.43;;
20245;SDS011;10281;54.406;18.556;2024-01-30T05:28:01;27.83;;;16.60;;
20245;SDS011;10281;54.406;18.556;2024-01-30T05:30:28;29.00;;;17.10;;
20245;SDS011;10281;54.406;18.556;2024-01-30T05:32:55;29.80;;;17.20;;
20245;SDS011;10281;54.406;18.556;2024-01-30T05:35:21;28.77;;;16.80;;
20245;SDS011;10281;54.406;18.556;2024-01-30T05:37:48;30.73;;;19.00;;
20245;SDS011;10281;54.406;18.556;2024-01-30T05:40:15;26.93;;;16.50;;
20245;SDS011;10281;54.406;18.556;2024-01-30T05:42:42;27.63;;;16.70;;
20245;SDS011;10281;54.406;18.556;2024-01-30T05:45:09;31.20;;;17.60;;
20245;SDS011;10281;54.406;18.556;2024-01-30T05:47:36;29.03;;;17.33;;
20245;SDS011;10281;54.406;18.556;2024-01-30T05:50:02;28.20;;;16.27;;
20245;SDS011;10281;54.406;18.556;2024-01-30T05:52:29;29.40;;;17.40;;
20245;SDS011;10281;54.406;18.556;2024-01-30T05:54:56;27.70;;;17.17;;
20245;SDS011;10281;54.406;18.556;2024-01-30T05:57:22;25.47;;;16.80;;
20245;SDS011;10281;54.406;18.556;2024-01-30T05:59:49;30.50;;;16.90;;
20245;SDS011;10281;54.406;18.556;2024-01-30T06:02:17;30.33;;;17.07;;
20245;SDS011;10281;54.406;18.556;2024-01-30T06:04:44;31.90;;;16.70;;
20245;SDS011;10281;54.406;18.556;2024-01-30T06:07:10;29.10;;;16.53;;
20245;SDS011;10281;54.406;18.556;2024-01-30T06:09:37;31.80;;;17.67;;
20245;SDS011;10281;54.406;18.556;2024-01-30T06:12:04;40.37;;;21.60;;
20245;SDS011;10281;54.406;18.556;2024-01-30T06:14:31;35.10;;;19.37;;
20245;SDS011;10281;54.406;18.556;2024-01-30T06:16:59;34.77;;;20.17;;
20245;SDS011;10281;54.406;18.556;2024-01-30T06:19:25;33.33;;;18.87;;
20245;SDS011;10281;54.406;18.556;2024-01-30T06:21:52;34.30;;;20.07;;
20245;SDS011;10281;54.406;18.556;2024-01-30T06:24:19;36.40;;;19.20;;
20245;SDS011;10281;54.406;18.556;2024-01-30T06:26:45;33.97;;;18.53;;
20245;SDS011;10281;54.406;18.556;2024-01-30T06:29:12;33.40;;;19.10;;
20245;SDS011;10281;54.406;18.556;2024-01-30T06:31:40;35.23;;;19.30;;
20245;SDS011;10281;54.406;18.556;2024-01-30T06:34:07;32.23;;;19.83;;
20245;SDS011;10281;54.406;18.556;2024-01-30T06:36:35;32.77;;;18.57;;
20245;SDS011;10281;54.406;18.556;2024-01-30T06:39:03;27.10;;;17.80;;
20245;SDS011;10281;54.406;18.556;2024-01-30T06:41:30;34.30;;;18.53;;
20245;SDS011;10281;54.406;18.556;2024-01-30T06:43:56;31.67;;;17.73;;
20245;SDS011;10281;54.406;18.556;2024-01-30T06:46:23;29.57;;;18.40;;
20245;SDS011;10281;54.406;18.556;2024-01-30T06:48:49;28.93;;;17.77;;
20245;SDS011;10281;54.406;18.556;2024-01-30T06:51:16;27.93;;;17.80;;
20245;SDS011;10281;54.406;18.556;2024-01-30T06:53:43;29.27;;;17.50;;
20245;SDS011;10281;54.406;18.556;2024-01-30T06:56:09;33.43;;;18.97;;
20245;SDS011;10281;54.406;18.556;2024-01-30T06:58:36;31.90;;;19.00;;
20245;SDS011;10281;54.406;18.556;2024-01-30T07:01:03;30.53;;;18.47;;
20245;SDS011;10281;54.406;18.556;2024-01-30T07:03:29;31.97;;;19.17;;
20245;SDS011;10281;54.406;18.556;2024-01-30T07:05:56;31.47;;;17.87;;
20245;SDS011;10281;54.406;18.556;2024-01-30T07:08:23;32.10;;;18.10;;
20245;SDS011;10281;54.406;18.556;2024-01-30T07:10:49;34.30;;;19.43;;
20245;SDS011;10281;54.406;18.556;2024-01-30T07:13:16;32.87;;;20.30;;
20245;SDS011;10281;54.406;18.556;2024-01-30T07:15:43;37.57;;;21.03;;
20245;SDS011;10281;54.406;18.556;2024-01-30T07:18:09;37.07;;;22.17;;
20245;SDS011;10281;54.406;18.556;2024-01-30T07:20:36;31.07;;;19.90;;
20245;SDS011;10281;54.406;18.556;2024-01-30T07:23:03;37.13;;;21.53;;
20245;SDS011;10281;54.406;18.556;2024-01-30T07:25:30;33.30;;;19.90;;
20245;SDS011;10281;54.406;18.556;2024-01-30T07:27:56;35.83;;;18.80;;
20245;SDS011;10281;54.406;18.556;2024-01-30T07:30:23;30.13;;;18.53;;
20245;SDS011;10281;54.406;18.556;2024-01-30T07:32:50;32.60;;;20.10;;
20245;SDS011;10281;54.406;18.556;2024-01-30T07:35:16;31.43;;;18.10;;
20245;SDS011;10281;54.406;18.556;2024-01-30T07:37:43;32.23;;;19.63;;
20245;SDS011;10281;54.406;18.556;2024-01-30T07:40:09;32.97;;;20.03;;
20245;SDS011;10281;54.406;18.556;2024-01-30T07:42:36;35.77;;;20.30;;
20245;SDS011;10281;54.406;18.556;2024-01-30T07:45:03;38.73;;;20.77;;
20245;SDS011;10281;54.406;18.556;2024-01-30T07:47:30;47.33;;;29.33;;
20245;SDS011;10281;54.406;18.556;2024-01-30T07:49:57;38.13;;;21.73;;
20245;SDS011;10281;54.406;18.556;2024-01-30T07:52:23;32.07;;;19.80;;
20245;SDS011;10281;54.406;18.556;2024-01-30T07:54:50;33.80;;;20.00;;
20245;SDS011;10281;54.406;18.556;2024-01-30T07:57:17;28.93;;;18.83;;
20245;SDS011;10281;54.406;18.556;2024-01-30T07:59:44;30.77;;;19.10;;
20245;SDS011;10281;54.406;18.556;2024-01-30T08:02:12;28.60;;;19.03;;
20245;SDS011;10281;54.406;18.556;2024-01-30T08:04:39;31.67;;;18.23;;
20245;SDS011;10281;54.406;18.556;2024-01-30T08:07:06;31.80;;;18.67;;
20245;SDS011;10281;54.406;18.556;2024-01-30T08:09:32;31.33;;;19.47;;
20245;SDS011;10281;54.406;18.556;2024-01-30T08:11:59;28.57;;;17.57;;
20245;SDS011;10281;54.406;18.556;2024-01-30T08:14:26;29.83;;;18.10;;
20245;SDS011;10281;54.406;18.556;2024-01-30T08:16:52;32.27;;;18.30;;
20245;SDS011;10281;54.406;18.556;2024-01-30T08:19:19;30.40;;;18.20;;
20245;SDS011;10281;54.406;18.556;2024-01-30T08:21:45;29.00;;;17.37;;
20245;SDS011;10281;54.406;18.556;2024-01-30T08:24:12;26.10;;;17.50;;
20245;SDS011;10281;54.406;18.556;2024-01-30T08:26:39;29.40;;;18.13;;
20245;SDS011;10281;54.406;18.556;2024-01-30T08:29:05;28.53;;;16.47;;
20245;SDS011;10281;54.406;18.556;2024-01-30T08:31:32;28.37;;;16.70;;
20245;SDS011;10281;54.406;18.556;2024-01-30T08:33:58;27.93;;;17.20;;
20245;SDS011;10281;54.406;18.556;2024-01-30T08:36:25;30.30;;;18.13;;
20245;SDS011;10281;54.406;18.556;2024-01-30T08:38:52;29.33;;;18.13;;
20245;SDS011;10281;54.406;18.556;2024-01-30T08:41:18;29.43;;;18.60;;
20245;SDS011;10281;54.406;18.556;2024-01-30T08:43:45;32.53;;;18.43;;
20245;SDS011;10281;54.406;18.556;2024-01-30T08:46:13;33.03;;;21.20;;
20245;SDS011;10281;54.406;18.556;2024-01-30T08:48:44;36.70;;;23.73;;
20245;SDS011;10281;54.406;18.556;2024-01-30T08:51:11;36.30;;;22.80;;
20245;SDS011;10281;54.406;18.556;2024-01-30T08:53:37;32.57;;;21.90;;
20245;SDS011;10281;54.406;18.556;2024-01-30T08:56:05;33.73;;;22.13;;
20245;SDS011;10281;54.406;18.556;2024-01-30T08:58:33;29.47;;;20.60;;
20245;SDS011;10281;54.406;18.556;2024-01-30T09:00:59;33.30;;;21.37;;
20245;SDS011;10281;54.406;18.556;2024-01-30T09:03:26;32.77;;;22.20;;
20245;SDS011;10281;54.406;18.556;2024-01-30T09:05:53;31.83;;;22.43;;
20245;SDS011;10281;54.406;18.556;2024-01-30T09:08:19;39.13;;;28.90;;
20245;SDS011;10281;54.406;18.556;2024-01-30T09:10:46;30.43;;;20.50;;
20245;SDS011;10281;54.406;18.556;2024-01-30T09:13:13;30.80;;;19.60;;
20245;SDS011;10281;54.406;18.556;2024-01-30T09:15:40;30.30;;;19.10;;
20245;SDS011;10281;54.406;18.556;2024-01-30T09:18:09;30.17;;;17.73;;
20245;SDS011;10281;54.406;18.556;2024-01-30T09:20:35;31.63;;;17.77;;
20245;SDS011;10281;54.406;18.556;2024-01-30T09:23:02;28.37;;;17.87;;
20245;SDS011;10281;54.406;18.556;2024-01-30T09:25:29;28.70;;;17.83;;
20245;SDS011;10281;54.406;18.556;2024-01-30T09:27:55;28.00;;;18.10;;
20245;SDS011;10281;54.406;18.556;2024-01-30T09:30:22;31.47;;;18.97;;
20245;SDS011;10281;54.406;18.556;2024-01-30T09:32:48;32.73;;;18.73;;
20245;SDS011;10281;54.406;18.556;2024-01-30T09:35:15;30.10;;;19.07;;
20245;SDS011;10281;54.406;18.556;2024-01-30T09:37:42;32.30;;;18.97;;
20245;SDS011;10281;54.406;18.556;2024-01-30T09:40:08;28.40;;;17.57;;
20245;SDS011;10281;54.406;18.556;2024-01-30T09:42:36;30.63;;;17.33;;
20245;SDS011;10281;54.406;18.556;2024-01-30T09:45:03;34.27;;;18.27;;
20245;SDS011;10281;54.406;18.556;2024-01-30T09:47:34;31.60;;;18.67;;
20245;SDS011;10281;54.406;18.556;2024-01-30T09:50:03;32.53;;;18.47;;
20245;SDS011;10281;54.406;18.556;2024-01-30T09:52:31;31.33;;;18.77;;
20245;SDS011;10281;54.406;18.556;2024-01-30T09:54:59;28.60;;;17.27;;
20245;SDS011;10281;54.406;18.556;2024-01-30T09:57:26;27.63;;;17.33;;
20245;SDS011;10281;54.406;18.556;2024-01-30T09:59:53;31.43;;;17.87;;
20245;SDS011;10281;54.406;18.556;2024-01-30T10:02:20;32.37;;;18.43;;
20245;SDS011;10281;54.406;18.556;2024-01-30T10:04:48;29.37;;;18.07;;
20245;SDS011;10281;54.406;18.556;2024-01-30T10:07:16;31.03;;;17.80;;
20245;SDS011;10281;54.406;18.556;2024-01-30T10:09:43;29.27;;;19.13;;
20245;SDS011;10281;54.406;18.556;2024-01-30T10:12:11;27.77;;;17.83;;
20245;SDS011;10281;54.406;18.556;2024-01-30T10:14:39;30.03;;;18.23;;
20245;SDS011;10281;54.406;18.556;2024-01-30T10:17:07;28.33;;;18.00;;
20245;SDS011;10281;54.406;18.556;2024-01-30T10:19:35;33.27;;;19.00;;
20245;SDS011;10281;54.406;18.556;2024-01-30T10:22:03;29.87;;;18.60;;
20245;SDS011;10281;54.406;18.556;2024-01-30T10:24:30;31.17;;;18.83;;
20245;SDS011;10281;54.406;18.556;2024-01-30T10:26:59;32.13;;;19.73;;
20245;SDS011;10281;54.406;18.556;2024-01-30T10:29:26;31.70;;;19.00;;
20245;SDS011;10281;54.406;18.556;2024-01-30T10:34:27;31.40;;;19.20;;
20245;SDS011;10281;54.406;18.556;2024-01-30T10:36:58;31.70;;;19.27;;
20245;SDS011;10281;54.406;18.556;2024-01-30T10:39:28;31.17;;;19.73;;
20245;SDS011;10281;54.406;18.556;2024-01-30T10:41:58;27.33;;;18.57;;
20245;SDS011;10281;54.406;18.556;2024-01-30T10:44:27;28.73;;;18.10;;
20245;SDS011;10281;54.406;18.556;2024-01-30T10:46:56;31.13;;;19.17;;
20245;SDS011;10281;54.406;18.556;2024-01-30T10:49:26;26.23;;;17.87;;
20245;SDS011;10281;54.406;18.556;2024-01-30T10:51:54;27.73;;;17.80;;
20245;SDS011;10281;54.406;18.556;2024-01-30T10:54:22;27.93;;;17.27;;
20245;SDS011;10281;54.406;18.556;2024-01-30T10:56:51;26.87;;;17.30;;
20245;SDS011;10281;54.406;18.556;2024-01-30T10:59:19;29.07;;;17.90;;
20245;SDS011;10281;54.406;18.556;2024-01-30T11:01:48;28.03;;;17.37;;
20245;SDS011;10281;54.406;18.556;2024-01-30T11:04:16;27.33;;;17.17;;
20245;SDS011;10281;54.406;18.556;2024-01-30T11:06:42;22.13;;;16.03;;
20245;SDS011;10281;54.406;18.556;2024-01-30T11:09:10;23.47;;;15.93;;
20245;SDS011;10281;54.406;18.556;2024-01-30T11:14:14;21.47;;;14.80;;
20245;SDS011;10281;54.406;18.556;2024-01-30T11:16:41;23.77;;;15.03;;
20245;SDS011;10281;54.406;18.556;2024-01-30T11:19:10;24.50;;;14.93;;
20245;SDS011;10281;54.406;18.556;2024-01-30T11:21:41;21.30;;;15.13;;
20245;SDS011;10281;54.406;18.556;2024-01-30T11:24:08;40.63;;;23.97;;
20245;SDS011;10281;54.406;18.556;2024-01-30T11:26:35;42.83;;;24.20;;
20245;SDS011;10281;54.406;18.556;2024-01-30T11:29:03;40.77;;;24.03;;
20245;SDS011;10281;54.406;18.556;2024-01-30T11:31:30;45.40;;;23.10;;
20245;SDS011;10281;54.406;18.556;2024-01-30T11:33:57;37.70;;;23.23;;
20245;SDS011;10281;54.406;18.556;2024-01-30T11:36:25;39.00;;;22.93;;
20245;SDS011;10281;54.406;18.556;2024-01-30T11:38:53;37.53;;;23.43;;
20245;SDS011;10281;54.406;18.556;2024-01-30T11:41:20;39.43;;;24.13;;
20245;SDS011;10281;54.406;18.556;2024-01-30T11:43:52;41.17;;;25.47;;
20245;SDS011;10281;54.406;18.556;2024-01-30T11:46:19;43.20;;;26.57;;
20245;SDS011;10281;54.406;18.556;2024-01-30T11:48:46;46.43;;;26.77;;
20245;SDS011;10281;54.406;18.556;2024-01-30T11:51:13;39.80;;;25.50;;
20245;SDS011;10281;54.406;18.556;2024-01-30T11:53:41;45.13;;;26.47;;
20245;SDS011;10281;54.406;18.556;2024-01-30T11:56:07;40.80;;;25.60;;
20245;SDS011;10281;54.406;18.556;2024-01-30T11:58:34;42.07;;;27.10;;
20245;SDS011;10281;54.406;18.556;2024-01-30T12:01:01;42.17;;;25.43;;
20245;SDS011;10281;54.406;18.556;2024-01-30T12:03:27;42.57;;;26.40;;
20245;SDS011;10281;54.406;18.556;2024-01-30T12:05:55;40.70;;;26.47;;
20245;SDS011;10281;54.406;18.556;2024-01-30T12:08:24;41.33;;;25.17;;
20245;SDS011;10281;54.406;18.556;2024-01-30T12:10:56;43.47;;;26.10;;
20245;SDS011;10281;54.406;18.556;2024-01-30T12:13:26;41.10;;;24.57;;
20245;SDS011;10281;54.406;18.556;2024-01-30T12:15:55;38.57;;;24.93;;
20245;SDS011;10281;54.406;18.556;2024-01-30T12:18:21;36.03;;;24.70;;
20245;SDS011;10281;54.406;18.556;2024-01-30T12:23:24;39.77;;;26.30;;
20245;SDS011;10281;54.406;18.556;2024-01-30T12:25:51;40.40;;;25.90;;
20245;SDS011;10281;54.406;18.556;2024-01-30T12:28:19;42.23;;;25.47;;
20245;SDS011;10281;54.406;18.556;2024-01-30T12:30:46;39.97;;;24.17;;
20245;SDS011;10281;54.406;18.556;2024-01-30T12:33:16;37.13;;;23.90;;
20245;SDS011;10281;54.406;18.556;2024-01-30T12:35:45;35.33;;;23.43;;
20245;SDS011;10281;54.406;18.556;2024-01-30T12:38:13;57.10;;;36.40;;
20245;SDS011;10281;54.406;18.556;2024-01-30T12:40:40;34.87;;;23.97;;
20245;SDS011;10281;54.406;18.556;2024-01-30T12:43:07;37.33;;;21.63;;
20245;SDS011;10281;54.406;18.556;2024-01-30T12:45:34;29.70;;;18.67;;
20245;SDS011;10281;54.406;18.556;2024-01-30T12:48:01;30.20;;;19.13;;
20245;SDS011;10281;54.406;18.556;2024-01-30T12:50:28;24.57;;;14.77;;
20245;SDS011;10281;54.406;18.556;2024-01-30T12:52:55;20.77;;;13.37;;
20245;SDS011;10281;54.406;18.556;2024-01-30T12:55:21;19.93;;;13.27;;
20245;SDS011;10281;54.406;18.556;2024-01-30T12:57:48;19.50;;;13.43;;
20245;SDS011;10281;54.406;18.556;2024-01-30T13:00:15;19.07;;;12.67;;
20245;SDS011;10281;54.406;18.556;2024-01-30T13:02:42;20.50;;;12.57;;
20245;SDS011;10281;54.406;18.556;2024-01-30T13:05:10;22.20;;;13.83;;
20245;SDS011;10281;54.406;18.556;2024-01-30T13:07:37;19.00;;;12.90;;
20245;SDS011;10281;54.406;18.556;2024-01-30T13:10:04;19.77;;;13.40;;
20245;SDS011;10281;54.406;18.556;2024-01-30T13:12:31;21.10;;;12.47;;
20245;SDS011;10281;54.406;18.556;2024-01-30T13:14:59;20.57;;;12.03;;
20245;SDS011;10281;54.406;18.556;2024-01-30T13:17:27;19.13;;;11.87;;
20245;SDS011;10281;54.406;18.556;2024-01-30T13:19:54;17.73;;;12.40;;
20245;SDS011;10281;54.406;18.556;2024-01-30T13:22:20;21.13;;;12.93;;
20245;SDS011;10281;54.406;18.556;2024-01-30T13:24:47;22.73;;;13.13;;
20245;SDS011;10281;54.406;18.556;2024-01-30T13:27:14;19.97;;;12.50;;
20245;SDS011;10281;54.406;18.556;2024-01-30T13:29:41;20.57;;;12.00;;
20245;SDS011;10281;54.406;18.556;2024-01-30T13:32:07;20.63;;;13.00;;
20245;SDS011;10281;54.406;18.556;2024-01-30T13:34:34;17.63;;;12.20;;
20245;SDS011;10281;54.406;18.556;2024-01-30T13:37:00;19.70;;;12.47;;
20245;SDS011;10281;54.406;18.556;2024-01-30T13:39:27;21.37;;;12.57;;
20245;SDS011;10281;54.406;18.556;2024-01-30T13:41:54;17.97;;;11.87;;
20245;SDS011;10281;54.406;18.556;2024-01-30T13:44:21;17.30;;;11.43;;
20245;SDS011;10281;54.406;18.556;2024-01-30T13:46:48;15.97;;;11.47;;
20245;SDS011;10281;54.406;18.556;2024-01-30T13:49:14;17.67;;;12.17;;
20245;SDS011;10281;54.406;18.556;2024-01-30T13:51:41;17.87;;;11.47;;
20245;SDS011;10281;54.406;18.556;2024-01-30T13:54:08;18.13;;;12.00;;
20245;SDS011;10281;54.406;18.556;2024-01-30T13:56:34;17.43;;;11.63;;
20245;SDS011;10281;54.406;18.556;2024-01-30T13:59:01;16.90;;;12.10;;
20245;SDS011;10281;54.406;18.556;2024-01-30T14:01:30;15.93;;;11.30;;
20245;SDS011;10281;54.406;18.556;2024-01-30T14:03:58;21.00;;;13.40;;
20245;SDS011;10281;54.406;18.556;2024-01-30T14:06:24;17.07;;;11.57;;
20245;SDS011;10281;54.406;18.556;2024-01-30T14:08:51;17.40;;;12.07;;
20245;SDS011;10281;54.406;18.556;2024-01-30T14:11:18;16.97;;;11.57;;
20245;SDS011;10281;54.406;18.556;2024-01-30T14:13:44;18.13;;;12.37;;
20245;SDS011;10281;54.406;18.556;2024-01-30T14:16:11;20.10;;;12.67;;